Time;durP1;ratioP1;P1;durP2;ratioP2;P2;SDS_P1;SDS_P2;PMS_P1;PMS_P2;Temp;Humidity;BMP_temperature;BMP_pressure;BME280_temperature;BME280_humidity;BME280_pressure;Samples;Min_cycle;Max_cycle;Signal;HPM_P1;HPM_P2
2023/12/03 00:00:50;;;;;;;15.23;10.97;;;;;;;2.88;51.77;97819.22;5047552;28;21012;-72
2023/12/03 00:03:16;;;;;;;22.40;11.07;;;;;;;2.83;52.19;97818.69;5071486;28;20252;-72
2023/12/03 00:05:41;;;;;;;15.30;10.40;;;;;;;2.79;51.89;97818.00;5063509;28;20216;-74
2023/12/03 00:08:07;;;;;;;14.23;10.43;;;;;;;2.79;52.11;97812.81;5060208;28;20202;-72
2023/12/03 00:10:33;;;;;;;14.60;10.60;;;;;;;2.76;51.79;97816.44;5052281;28;20235;-71
2023/12/03 00:12:58;;;;;;;15.00;10.83;;;;;;;2.78;51.42;97815.50;5037045;28;20444;-70
2023/12/03 00:15:24;;;;;;;14.90;10.57;;;;;;;2.81;51.54;97820.53;5055808;28;20832;-71
2023/12/03 00:17:50;;;;;;;14.23;10.10;;;;;;;2.79;51.33;97828.34;5065838;28;20206;-70
2023/12/03 00:20:16;;;;;;;13.73;10.03;;;;;;;2.83;51.17;97819.50;5060354;28;20966;-72
2023/12/03 00:22:42;;;;;;;14.20;9.80;;;;;;;2.90;51.16;97823.38;5045654;28;20424;-70
2023/12/03 00:25:07;;;;;;;14.27;9.90;;;;;;;2.85;51.10;97825.44;5043360;28;20187;-72
2023/12/03 00:27:33;;;;;;;14.60;10.50;;;;;;;2.82;51.65;97822.19;5065181;28;20717;-71
2023/12/03 00:29:58;;;;;;;14.20;10.70;;;;;;;2.81;51.76;97826.50;5066089;28;20194;-72
2023/12/03 00:32:24;;;;;;;16.13;10.60;;;;;;;2.85;51.28;97834.94;5066925;28;20198;-71
2023/12/03 00:34:49;;;;;;;19.27;11.00;;;;;;;2.86;51.61;97836.59;5063849;28;20217;-71
2023/12/03 00:37:15;;;;;;;15.07;10.33;;;;;;;2.84;51.29;97835.84;5040042;28;20190;-73
2023/12/03 00:39:40;;;;;;;15.10;10.77;;;;;;;2.87;52.00;97828.78;5045005;28;20675;-70
2023/12/03 00:42:06;;;;;;;15.90;10.97;;;;;;;2.87;52.01;97831.34;5060264;28;20206;-71
2023/12/03 00:44:32;;;;;;;16.60;11.03;;;;;;;2.90;52.17;97838.94;5065712;28;20214;-71
2023/12/03 00:46:57;;;;;;;14.37;10.80;;;;;;;2.90;52.35;97840.69;5062648;28;20497;-72
2023/12/03 00:49:23;;;;;;;16.07;10.93;;;;;;;2.87;52.29;97841.72;5068035;28;20436;-72
2023/12/03 00:51:48;;;;;;;20.50;10.97;;;;;;;2.86;52.20;97847.81;5067243;28;20214;-74
2023/12/03 00:54:14;;;;;;;15.50;11.50;;;;;;;2.91;52.18;97838.00;5068187;28;20193;-72
2023/12/03 00:56:39;;;;;;;17.00;10.90;;;;;;;2.85;51.77;97848.72;5069588;28;20584;-72
2023/12/03 00:59:04;;;;;;;14.13;10.40;;;;;;;2.94;51.53;97849.13;5068319;28;20273;-70
2023/12/03 01:01:30;;;;;;;16.23;10.40;;;;;;;2.83;51.68;97847.97;5065385;28;20217;-71
2023/12/03 01:03:56;;;;;;;15.40;11.23;;;;;;;2.76;51.49;97859.63;5061016;28;20187;-74
2023/12/03 01:06:21;;;;;;;14.77;10.70;;;;;;;2.78;51.36;97857.75;5047237;28;20244;-73
2023/12/03 01:08:46;;;;;;;14.50;10.70;;;;;;;2.86;50.79;97857.31;5064351;28;20198;-70
2023/12/03 01:11:12;;;;;;;16.43;11.60;;;;;;;2.85;51.09;97861.69;5059621;28;20213;-71
2023/12/03 01:13:37;;;;;;;19.20;10.70;;;;;;;2.87;50.97;97870.19;5060840;28;20194;-73
2023/12/03 01:16:03;;;;;;;17.23;11.00;;;;;;;2.86;51.20;97876.28;5063419;28;20214;-72
2023/12/03 01:18:28;;;;;;;16.03;10.93;;;;;;;2.78;51.38;97888.81;5065708;28;20528;-71
2023/12/03 01:20:54;;;;;;;12.67;9.67;;;;;;;2.80;50.90;97881.81;5061098;28;20662;-71
2023/12/03 01:23:19;;;;;;;15.57;11.03;;;;;;;2.86;50.86;97881.47;5057942;28;20179;-71
2023/12/03 01:25:45;;;;;;;17.20;11.90;;;;;;;2.91;51.04;97883.78;5064162;28;20605;-71
2023/12/03 01:28:10;;;;;;;15.77;9.83;;;;;;;2.79;50.78;97894.84;5067192;28;20191;-72
2023/12/03 01:30:36;;;;;;;16.50;10.67;;;;;;;2.84;51.30;97896.25;5065950;28;20300;-72
2023/12/03 01:33:01;;;;;;;13.37;10.03;;;;;;;2.83;51.32;97897.19;5067103;28;20269;-72
2023/12/03 01:35:27;;;;;;;16.03;11.43;;;;;;;2.87;50.94;97900.41;5065855;28;20558;-72
2023/12/03 01:37:52;;;;;;;15.87;10.90;;;;;;;2.84;50.86;97913.53;5062670;28;20186;-71
2023/12/03 01:40:17;;;;;;;14.77;10.30;;;;;;;2.89;50.54;97906.34;5065707;28;20218;-72
2023/12/03 01:42:43;;;;;;;16.30;10.83;;;;;;;2.94;50.80;97908.66;5061374;28;20229;-71
2023/12/03 01:45:08;;;;;;;14.87;10.33;;;;;;;2.98;50.70;97910.19;5058476;28;20206;-71
2023/12/03 01:47:34;;;;;;;16.90;10.63;;;;;;;2.98;50.01;97911.00;5065626;28;20178;-71
2023/12/03 01:50:05;;;;;;;16.37;10.67;;;;;;;2.97;49.46;97921.47;5042017;28;20278;-71
2023/12/03 01:52:30;;;;;;;11.50;9.07;;;;;;;3.00;49.81;97923.88;5063403;28;20187;-71
2023/12/03 01:54:56;;;;;;;11.10;8.73;;;;;;;2.94;48.36;97919.03;5067036;28;20464;-70
2023/12/03 01:57:23;;;;;;;10.00;7.50;;;;;;;2.94;47.29;97921.63;5035765;28;20212;-71
2023/12/03 01:59:48;;;;;;;12.00;8.60;;;;;;;2.83;46.30;97932.59;5051935;28;20456;-71
2023/12/03 02:02:14;;;;;;;11.23;8.07;;;;;;;2.84;46.22;97934.25;5063356;28;20475;-73
2023/12/03 02:04:40;;;;;;;11.57;9.23;;;;;;;2.79;46.52;97931.09;5038903;28;20183;-71
2023/12/03 02:07:05;;;;;;;12.47;9.00;;;;;;;2.84;47.37;97929.06;5069945;28;20197;-72
2023/12/03 02:09:31;;;;;;;13.77;9.17;;;;;;;2.81;46.75;97930.09;5065233;28;20432;-71
2023/12/03 02:11:56;;;;;;;12.37;8.87;;;;;;;2.81;46.54;97931.84;5052016;28;20202;-71
2023/12/03 02:14:22;;;;;;;10.67;8.10;;;;;;;2.81;45.95;97918.91;5070185;28;20190;-70
2023/12/03 02:16:47;;;;;;;12.97;8.90;;;;;;;2.74;46.99;97918.41;5065968;28;20194;-71
2023/12/03 02:19:14;;;;;;;12.00;9.30;;;;;;;2.71;47.16;97918.56;5066191;28;20677;-71
2023/12/03 02:21:39;;;;;;;11.70;9.07;;;;;;;2.61;46.66;97919.09;5068700;28;20202;-71
2023/12/03 02:24:05;;;;;;;13.70;9.10;;;;;;;2.61;47.06;97933.78;5068950;28;20458;-70
2023/12/03 02:26:30;;;;;;;12.10;8.77;;;;;;;2.60;47.35;97930.38;5047844;28;20236;-70
2023/12/03 02:28:56;;;;;;;12.97;9.30;;;;;;;2.73;47.71;97927.09;5061315;28;20273;-70
2023/12/03 02:31:21;;;;;;;11.33;8.63;;;;;;;2.68;47.96;97924.78;5069735;28;20213;-71
2023/12/03 02:33:55;;;;;;;12.27;8.30;;;;;;;2.69;47.62;97926.44;5061540;28;20715;-70
2023/12/03 02:36:20;;;;;;;11.17;8.67;;;;;;;2.59;47.25;97933.88;5045262;28;20207;-69
2023/12/03 02:38:46;;;;;;;12.80;8.33;;;;;;;2.68;46.71;97924.78;5068831;28;20452;-70
2023/12/03 02:41:11;;;;;;;13.03;9.10;;;;;;;2.74;46.48;97928.75;5069888;28;20206;-71
2023/12/03 02:43:37;;;;;;;11.90;8.80;;;;;;;2.65;46.48;97937.06;5068907;28;20240;-71
2023/12/03 02:46:03;;;;;;;11.53;8.60;;;;;;;2.53;46.39;97939.38;5067935;28;20190;-70
2023/12/03 02:48:29;;;;;;;10.33;8.00;;;;;;;2.54;47.15;97937.63;5020886;28;20213;-72
2023/12/03 02:50:54;;;;;;;12.10;8.97;;;;;;;2.52;47.17;97944.63;5068891;28;20492;-72
2023/12/03 02:53:20;;;;;;;10.87;7.93;;;;;;;2.51;47.25;97942.97;5066793;28;20297;-71
2023/12/03 02:55:45;;;;;;;10.47;7.90;;;;;;;2.45;47.85;97944.13;5069083;28;20214;-71
2023/12/03 02:58:10;;;;;;;11.70;8.97;;;;;;;2.42;47.84;97944.28;5060971;28;20190;-71
2023/12/03 03:00:36;;;;;;;11.43;8.30;;;;;;;2.41;47.70;97937.44;5069415;28;20737;-72
2023/12/03 03:03:01;;;;;;;12.33;9.13;;;;;;;2.48;47.56;97940.53;5062864;28;20186;-72
2023/12/03 03:05:27;;;;;;;12.50;9.10;;;;;;;2.42;47.68;97944.28;5068259;28;20178;-71
2023/12/03 03:07:52;;;;;;;12.37;8.83;;;;;;;2.48;47.98;97941.38;5068209;28;20225;-70
2023/12/03 03:10:18;;;;;;;18.80;9.40;;;;;;;2.49;48.10;97943.06;5069290;28;20189;-71
2023/12/03 03:12:43;;;;;;;11.13;7.80;;;;;;;2.57;47.35;97946.06;5049935;28;20425;-71
2023/12/03 03:15:09;;;;;;;13.90;9.40;;;;;;;2.65;47.27;97940.47;5066426;28;20422;-70
2023/12/03 03:17:34;;;;;;;10.87;7.90;;;;;;;2.66;47.64;97941.28;5069166;28;20178;-72
2023/12/03 03:20:00;;;;;;;11.80;8.90;;;;;;;2.73;47.51;97952.97;5068506;28;20194;-71
2023/12/03 03:22:25;;;;;;;12.20;8.10;;;;;;;2.73;46.68;97958.97;5051480;28;20680;-71
2023/12/03 03:24:52;;;;;;;10.67;8.17;;;;;;;2.73;46.45;97953.81;5044436;28;20662;-71
2023/12/03 03:27:17;;;;;;;11.63;9.37;;;;;;;2.63;46.76;97957.00;5071204;28;20710;-72
2023/12/03 03:29:42;;;;;;;9.60;7.50;;;;;;;2.63;46.13;97954.41;5056159;28;20513;-71
2023/12/03 03:32:08;;;;;;;12.37;8.53;;;;;;;2.67;46.52;97948.13;5069168;28;20743;-71
2023/12/03 03:34:33;;;;;;;13.43;8.43;;;;;;;2.68;46.58;97948.06;5061570;28;20618;-69
2023/12/03 03:36:59;;;;;;;16.50;9.50;;;;;;;2.76;47.75;97952.81;5040404;28;20197;-72
2023/12/03 03:39:24;;;;;;;12.10;9.43;;;;;;;2.78;48.27;97955.31;5059496;28;20264;-70
2023/12/03 03:41:49;;;;;;;14.03;9.20;;;;;;;2.72;48.18;97952.13;5071758;28;20207;-71
2023/12/03 03:44:15;;;;;;;11.80;9.20;;;;;;;2.69;48.30;97954.91;5072933;28;20348;-72
2023/12/03 03:46:41;;;;;;;13.83;10.13;;;;;;;2.64;48.79;97959.50;5049090;28;20232;-72
2023/12/03 03:49:06;;;;;;;13.17;9.87;;;;;;;2.64;49.11;97959.50;5067397;28;20195;-71
2023/12/03 03:51:32;;;;;;;12.60;8.97;;;;;;;2.66;49.12;97956.81;5063485;28;20203;-71
2023/12/03 03:53:57;;;;;;;13.07;9.73;;;;;;;2.66;48.92;97957.66;5064003;28;20821;-72
2023/12/03 03:56:23;;;;;;;11.10;8.57;;;;;;;2.69;47.78;97962.69;5062119;28;20241;-71
2023/12/03 03:58:48;;;;;;;11.10;7.80;;;;;;;2.59;46.98;97964.94;5064136;28;20268;-72
2023/12/03 04:01:14;;;;;;;12.20;9.23;;;;;;;2.54;47.04;97966.91;5050302;28;20206;-71
2023/12/03 04:03:39;;;;;;;10.70;7.90;;;;;;;2.51;47.78;97963.66;5066084;28;20213;-72
2023/12/03 04:06:06;;;;;;;12.37;9.03;;;;;;;2.44;47.78;97958.00;5066019;28;20293;-70
2023/12/03 04:08:32;;;;;;;12.23;8.90;;;;;;;2.50;48.26;97962.84;5044654;28;20183;-71
2023/12/03 04:10:57;;;;;;;14.20;9.10;;;;;;;2.61;47.44;97952.75;5047004;28;20551;-72
2023/12/03 04:13:24;;;;;;;14.00;9.13;;;;;;;2.60;47.60;97955.41;5049294;28;20523;-71
2023/12/03 04:15:50;;;;;;;14.63;8.97;;;;;;;2.58;47.19;97952.09;5066633;28;20214;-72
2023/12/03 04:18:15;;;;;;;13.00;9.13;;;;;;;2.55;46.55;97947.06;5059296;28;21032;-70
2023/12/03 04:20:41;;;;;;;15.97;9.30;;;;;;;2.48;46.58;97948.31;5049457;28;20205;-72
2023/12/03 04:23:07;;;;;;;13.93;8.60;;;;;;;2.46;46.36;97951.81;5065555;28;20190;-71
2023/12/03 04:25:32;;;;;;;14.60;9.77;;;;;;;2.49;46.42;97962.91;5068090;28;20236;-70
2023/12/03 04:27:58;;;;;;;15.13;9.60;;;;;;;2.28;47.59;97963.16;5067843;28;20795;-70
2023/12/03 04:30:23;;;;;;;13.23;9.47;;;;;;;2.28;47.31;97971.75;5057088;28;20218;-71
2023/12/03 04:32:49;;;;;;;13.20;9.27;;;;;;;2.30;47.33;97975.09;5057965;28;20222;-73
2023/12/03 04:35:14;;;;;;;11.57;8.57;;;;;;;2.27;47.24;97974.41;5062120;28;20280;-73
2023/12/03 04:37:40;;;;;;;13.67;9.57;;;;;;;2.34;46.97;97978.34;5064182;28;20208;-71
2023/12/03 04:40:06;;;;;;;14.00;10.33;;;;;;;2.26;47.02;97976.19;5066991;28;20205;-74
2023/12/03 04:42:31;;;;;;;16.20;10.30;;;;;;;2.18;47.41;97970.56;5043396;28;20194;-72
2023/12/03 04:44:57;;;;;;;15.47;10.30;;;;;;;2.14;47.41;97980.25;5047683;28;20428;-74
2023/12/03 04:47:22;;;;;;;15.70;10.13;;;;;;;2.02;47.69;97980.06;5060387;28;20261;-71
2023/12/03 04:49:48;;;;;;;14.13;9.90;;;;;;;2.09;48.11;97979.63;5055444;28;20263;-71
2023/12/03 04:52:13;;;;;;;14.63;10.50;;;;;;;2.06;48.16;97972.06;5063542;28;20572;-73
2023/12/03 04:54:39;;;;;;;14.63;10.20;;;;;;;2.04;48.55;97981.63;5055000;28;20341;-72
2023/12/03 04:57:04;;;;;;;14.10;9.47;;;;;;;2.14;48.89;97976.84;5066722;28;20201;-71
2023/12/03 04:59:29;;;;;;;15.43;10.57;;;;;;;2.09;49.23;97978.81;5056582;28;20573;-71
2023/12/03 05:01:55;;;;;;;12.30;9.70;;;;;;;2.01;49.52;97978.38;5048033;28;20224;-70
2023/12/03 05:04:23;;;;;;;14.97;9.50;;;;;;;1.93;49.85;97987.34;5067805;28;20187;-71
2023/12/03 05:06:49;;;;;;;16.13;8.97;;;;;;;1.84;49.85;97988.66;5064522;28;20195;-72
2023/12/03 05:09:15;;;;;;;13.37;9.50;;;;;;;1.84;50.03;97990.41;5062262;28;20861;-70
2023/12/03 05:11:41;;;;;;;17.93;10.73;;;;;;;1.79;50.07;97993.25;5064579;28;20594;-72
2023/12/03 05:14:06;;;;;;;15.33;11.00;;;;;;;1.83;50.32;97996.50;5045467;28;20448;-72
2023/12/03 05:16:31;;;;;;;15.40;10.70;;;;;;;1.78;50.10;97990.72;5066464;28;20214;-72
2023/12/03 05:18:57;;;;;;;17.90;11.00;;;;;;;1.68;50.11;97990.38;5065437;28;20217;-70
2023/12/03 05:21:22;;;;;;;14.63;9.90;;;;;;;1.60;50.46;97993.34;5068274;28;20711;-71
2023/12/03 05:23:48;;;;;;;14.57;11.00;;;;;;;1.51;50.79;97997.22;5066612;28;20537;-72
2023/12/03 05:26:13;;;;;;;17.23;10.70;;;;;;;1.44;50.59;97995.84;5065103;28;20197;-71
2023/12/03 05:28:39;;;;;;;16.10;11.10;;;;;;;1.53;49.98;98002.28;5070721;28;20220;-71
2023/12/03 05:31:04;;;;;;;18.73;11.70;;;;;;;1.47;50.34;98007.78;5069326;28;20217;-72
2023/12/03 05:33:30;;;;;;;15.97;10.93;;;;;;;1.44;50.38;98007.91;5067456;28;20190;-71
2023/12/03 05:35:56;;;;;;;20.23;12.17;;;;;;;1.41;50.53;98008.06;5069600;28;20206;-70
2023/12/03 05:38:21;;;;;;;17.20;10.87;;;;;;;1.29;50.44;98012.91;5063106;28;20536;-71
2023/12/03 05:40:47;;;;;;;16.10;10.83;;;;;;;1.23;50.54;98010.66;5066417;28;20688;-71
2023/12/03 05:43:14;;;;;;;20.10;11.17;;;;;;;1.24;50.54;98014.91;5064149;28;20222;-72
2023/12/03 05:45:39;;;;;;;17.90;11.17;;;;;;;1.21;50.08;98013.28;5063083;28;20244;-72
2023/12/03 05:48:05;;;;;;;21.00;11.07;;;;;;;1.07;50.76;98023.47;5072945;28;20424;-71
2023/12/03 05:50:30;;;;;;;16.20;10.97;;;;;;;1.06;50.57;98020.03;5075367;28;20289;-71
2023/12/03 05:52:56;;;;;;;20.03;10.80;;;;;;;1.16;50.48;98017.00;5072755;28;20240;-72
2023/12/03 05:55:21;;;;;;;17.03;11.43;;;;;;;1.19;50.40;98015.13;5063674;28;20311;-70
2023/12/03 05:57:46;;;;;;;19.80;12.13;;;;;;;1.13;50.48;98019.75;5070618;28;20193;-73
2023/12/03 06:00:13;;;;;;;22.83;12.00;;;;;;;1.09;49.97;98024.19;5063162;28;20189;-71
2023/12/03 06:02:38;;;;;;;18.53;12.00;;;;;;;1.16;50.13;98028.19;5050693;28;20277;-71
2023/12/03 06:05:04;;;;;;;21.27;11.67;;;;;;;1.14;50.33;98013.66;5067658;28;20518;-71
2023/12/03 06:07:29;;;;;;;16.47;11.37;;;;;;;1.06;50.23;98014.84;5068663;28;20187;-69
2023/12/03 06:09:55;;;;;;;17.60;10.43;;;;;;;1.10;49.68;98022.47;5064841;28;20421;-71
2023/12/03 06:12:20;;;;;;;15.43;10.57;;;;;;;1.05;49.79;98013.19;5068468;28;20214;-70
2023/12/03 06:14:46;;;;;;;17.93;11.40;;;;;;;0.99;50.09;98013.50;5070521;28;20230;-71
2023/12/03 06:17:11;;;;;;;17.13;10.40;;;;;;;0.96;50.00;98029.13;5067003;28;20186;-71
2023/12/03 06:19:37;;;;;;;17.90;11.90;;;;;;;1.01;50.11;98019.41;5051760;28;20282;-71
2023/12/03 06:22:02;;;;;;;16.57;11.53;;;;;;;0.96;49.99;98016.22;5066786;28;20214;-69
2023/12/03 06:24:28;;;;;;;22.80;12.57;;;;;;;0.89;49.67;98018.25;5051486;28;20274;-71
2023/12/03 06:26:54;;;;;;;22.80;13.67;;;;;;;0.74;50.28;98024.97;5065728;28;20217;-70
2023/12/03 06:29:20;;;;;;;18.67;11.90;;;;;;;0.79;49.97;98027.31;5047402;28;22677;-69
2023/12/03 06:31:47;;;;;;;16.83;11.67;;;;;;;0.71;49.64;98026.81;5060610;28;20222;-70
2023/12/03 06:34:12;;;;;;;18.73;11.83;;;;;;;0.73;49.91;98031.03;5059924;28;20183;-71
2023/12/03 06:36:38;;;;;;;16.93;10.83;;;;;;;0.63;49.35;98027.16;5061908;28;20497;-70
2023/12/03 06:39:04;;;;;;;17.73;11.00;;;;;;;0.52;50.50;98042.31;5067533;28;20186;-69
2023/12/03 06:41:29;;;;;;;21.20;11.07;;;;;;;0.49;50.43;98045.03;5052109;28;20213;-70
2023/12/03 06:43:55;;;;;;;19.63;11.30;;;;;;;0.42;50.58;98037.56;5067116;28;20440;-69
2023/12/03 06:46:20;;;;;;;17.50;11.07;;;;;;;0.48;50.49;98044.19;5069180;28;20272;-70
2023/12/03 06:48:46;;;;;;;17.23;10.93;;;;;;;0.45;50.36;98045.16;5066898;28;20602;-71
2023/12/03 06:51:11;;;;;;;16.87;10.60;;;;;;;0.33;50.47;98053.44;5069564;28;20236;-70
2023/12/03 06:53:37;;;;;;;17.87;11.67;;;;;;;0.35;50.97;98046.50;5065940;28;20704;-70
2023/12/03 06:56:04;;;;;;;19.30;10.80;;;;;;;0.43;50.07;98049.56;5066030;28;20214;-71
2023/12/03 06:58:30;;;;;;;19.40;11.53;;;;;;;0.51;50.25;98053.53;5061689;28;20186;-72
2023/12/03 07:00:55;;;;;;;19.47;11.40;;;;;;;0.52;50.19;98045.72;5065496;28;20463;-71
2023/12/03 07:03:20;;;;;;;16.30;10.93;;;;;;;0.53;50.84;98051.72;5067697;28;20813;-72
2023/12/03 07:05:46;;;;;;;17.23;10.03;;;;;;;0.57;49.80;98058.44;5061459;28;20241;-71
2023/12/03 07:08:11;;;;;;;16.87;10.70;;;;;;;0.54;49.96;98058.56;5063893;28;20810;-70
2023/12/03 07:10:37;;;;;;;18.57;11.43;;;;;;;0.36;50.61;98055.91;5063414;28;20206;-70
2023/12/03 07:13:02;;;;;;;17.20;10.73;;;;;;;0.39;50.48;98063.47;5068778;28;20282;-70
2023/12/03 07:15:28;;;;;;;18.43;11.00;;;;;;;0.49;49.92;98055.34;5050105;28;20213;-70
2023/12/03 07:17:53;;;;;;;19.23;11.10;;;;;;;0.34;50.29;98068.03;5062472;28;20340;-71
2023/12/03 07:20:19;;;;;;;14.87;10.37;;;;;;;0.43;50.32;98070.19;5062072;28;20198;-70
2023/12/03 07:22:44;;;;;;;18.50;11.70;;;;;;;0.33;50.42;98065.50;5057223;28;20198;-71
2023/12/03 07:25:09;;;;;;;16.73;11.50;;;;;;;0.39;50.58;98076.38;5058622;28;20233;-70
2023/12/03 07:27:35;;;;;;;16.23;10.93;;;;;;;0.41;50.51;98069.41;5056872;28;20186;-69
2023/12/03 07:30:00;;;;;;;17.23;11.30;;;;;;;0.41;50.46;98069.41;5067583;28;20201;-70
2023/12/03 07:32:26;;;;;;;20.73;13.73;;;;;;;0.55;50.50;98070.56;5063368;28;20684;-71
2023/12/03 07:34:52;;;;;;;26.63;15.70;;;;;;;0.59;50.41;98069.53;5065056;28;20228;-72
2023/12/03 07:37:17;;;;;;;24.30;16.03;;;;;;;0.62;50.08;98066.81;5062235;28;20692;-71
2023/12/03 07:39:43;;;;;;;20.10;12.93;;;;;;;0.60;50.00;98066.84;5042311;28;20441;-71
2023/12/03 07:42:08;;;;;;;20.80;13.50;;;;;;;0.67;50.16;98066.59;5063185;28;20210;-70
2023/12/03 07:44:34;;;;;;;22.87;12.50;;;;;;;0.62;50.23;98077.13;5067506;28;20182;-69
2023/12/03 07:47:00;;;;;;;19.10;13.00;;;;;;;0.58;50.28;98080.75;5047854;28;20190;-71
2023/12/03 07:49:25;;;;;;;20.17;12.70;;;;;;;0.97;50.25;98081.56;5044391;28;20221;-70
2023/12/03 07:51:51;;;;;;;21.53;14.03;;;;;;;1.49;49.13;98084.28;5067182;28;20484;-71
2023/12/03 07:54:17;;;;;;;27.67;15.93;;;;;;;1.97;48.11;98081.97;5033133;28;20210;-71
2023/12/03 07:56:42;;;;;;;19.67;13.60;;;;;;;2.29;46.85;98083.84;5067596;28;20210;-71
2023/12/03 07:59:08;;;;;;;20.43;13.37;;;;;;;2.68;46.05;98089.59;5061544;28;20201;-71
2023/12/03 08:01:34;;;;;;;19.50;13.30;;;;;;;2.55;45.77;98084.25;5064358;28;20253;-71
2023/12/03 08:04:00;;;;;;;18.30;13.13;;;;;;;2.95;45.13;98091.63;5050234;28;20208;-72
2023/12/03 08:06:25;;;;;;;23.93;14.50;;;;;;;3.42;44.88;98090.78;5068156;28;20946;-70
2023/12/03 08:08:52;;;;;;;25.47;15.47;;;;;;;3.69;44.20;98082.38;5066398;28;20190;-71
2023/12/03 08:11:17;;;;;;;20.40;12.73;;;;;;;3.94;44.20;98091.31;5060081;28;20261;-71
2023/12/03 08:13:43;;;;;;;16.63;12.00;;;;;;;4.09;43.54;98089.63;5063884;28;20448;-70
2023/12/03 08:16:08;;;;;;;17.90;11.80;;;;;;;4.22;43.58;98084.53;5047441;28;20222;-70
2023/12/03 08:18:34;;;;;;;19.20;12.60;;;;;;;4.40;42.69;98074.81;5046573;28;20187;-71
2023/12/03 08:20:59;;;;;;;17.03;11.87;;;;;;;4.58;43.08;98085.84;5071538;28;20263;-71
2023/12/03 08:23:26;;;;;;;16.70;11.10;;;;;;;4.53;42.63;98082.72;5067574;28;20198;-71
2023/12/03 08:25:51;;;;;;;15.40;11.43;;;;;;;4.74;42.46;98086.59;5063131;28;20187;-71
2023/12/03 08:28:17;;;;;;;17.73;12.13;;;;;;;4.93;42.33;98090.63;5063882;28;20437;-71
2023/12/03 08:30:42;;;;;;;16.83;12.00;;;;;;;5.14;42.02;98080.69;5064989;28;20278;-71
2023/12/03 08:33:07;;;;;;;17.27;11.97;;;;;;;5.28;41.58;98090.22;5048066;28;20194;-71
2023/12/03 08:35:33;;;;;;;18.90;13.13;;;;;;;5.30;41.08;98096.13;5045251;28;20206;-71
2023/12/03 08:37:59;;;;;;;18.07;13.43;;;;;;;5.10;41.78;98092.22;5068636;28;20193;-71
2023/12/03 08:40:24;;;;;;;17.50;12.47;;;;;;;5.23;41.48;98100.06;5059136;28;20200;-71
2023/12/03 08:42:50;;;;;;;18.80;12.77;;;;;;;5.35;41.98;98091.47;5065180;28;20259;-70
2023/12/03 08:45:15;;;;;;;19.70;13.90;;;;;;;5.63;42.42;98084.50;5062772;28;20655;-71
2023/12/03 08:47:41;;;;;;;18.43;12.50;;;;;;;5.27;40.93;98085.94;5032575;28;20259;-69
2023/12/03 08:50:06;;;;;;;18.37;12.40;;;;;;;5.21;41.54;98083.72;5029533;28;20186;-71
2023/12/03 08:52:32;;;;;;;20.30;13.00;;;;;;;5.18;42.34;98081.31;5063419;28;20488;-70
2023/12/03 08:54:57;;;;;;;20.40;13.33;;;;;;;5.84;43.55;98091.84;5064761;28;20302;-71
2023/12/03 08:57:23;;;;;;;20.10;13.03;;;;;;;5.96;40.34;98090.22;5046931;28;20194;-72
2023/12/03 08:59:50;;;;;;;18.20;12.97;;;;;;;5.96;41.52;98093.63;5063562;28;20561;-72
2023/12/03 09:02:16;;;;;;;21.97;14.63;;;;;;;6.12;40.81;98105.66;5050781;28;20267;-72
2023/12/03 09:04:41;;;;;;;18.67;12.60;;;;;;;5.96;40.39;98114.44;5051565;28;20461;-71
2023/12/03 09:07:07;;;;;;;20.40;13.57;;;;;;;6.17;40.01;98107.97;5072038;28;20511;-73
2023/12/03 09:09:32;;;;;;;20.73;14.07;;;;;;;6.28;40.43;98106.31;5069508;28;20281;-70
2023/12/03 09:11:58;;;;;;;19.80;13.70;;;;;;;6.39;39.15;98107.38;5071054;28;20290;-71
2023/12/03 09:14:25;;;;;;;18.77;12.10;;;;;;;6.32;39.83;98106.09;5067277;28;20244;-70
2023/12/03 09:16:51;;;;;;;17.13;12.27;;;;;;;6.44;39.71;98100.91;5066066;28;20236;-70
2023/12/03 09:19:16;;;;;;;19.30;12.87;;;;;;;6.69;40.50;98093.16;5059244;28;20467;-71
2023/12/03 09:21:42;;;;;;;19.20;13.20;;;;;;;6.79;39.64;98094.22;5043441;28;20220;-70
2023/12/03 09:24:07;;;;;;;18.70;12.40;;;;;;;7.03;39.21;98090.84;5068601;28;20732;-70
2023/12/03 09:26:33;;;;;;;20.23;13.67;;;;;;;7.02;38.90;98089.97;5059316;28;20217;-70
2023/12/03 09:28:58;;;;;;;18.60;12.87;;;;;;;7.04;39.98;98084.69;5058406;28;20206;-70
2023/12/03 09:31:24;;;;;;;18.37;13.40;;;;;;;7.38;39.41;98077.88;5062734;28;20281;-71
2023/12/03 09:33:49;;;;;;;17.97;12.40;;;;;;;7.47;38.55;98078.97;5067552;28;20692;-72
2023/12/03 09:36:15;;;;;;;20.87;14.93;;;;;;;7.56;38.55;98080.09;5065125;28;20672;-71
2023/12/03 09:38:40;;;;;;;26.43;18.70;;;;;;;8.23;38.24;98081.25;5069219;28;20222;-71
2023/12/03 09:41:08;;;;;;;18.23;12.73;;;;;;;8.12;37.18;98074.22;5069623;28;20264;-72
2023/12/03 09:43:36;;;;;;;28.47;19.73;;;;;;;8.21;37.63;98079.69;5044969;28;20610;-70
2023/12/03 09:46:05;;;;;;;19.50;13.30;;;;;;;8.43;36.68;98071.91;5030577;28;20896;-71
2023/12/03 09:48:31;;;;;;;18.97;13.53;;;;;;;8.51;36.33;98073.13;5060199;28;20508;-71
2023/12/03 09:50:59;;;;;;;20.53;13.40;;;;;;;8.46;35.42;98069.03;5061150;28;20825;-71
2023/12/03 09:53:25;;;;;;;22.63;15.93;;;;;;;8.88;36.45;98071.06;5023796;28;20618;-71
2023/12/03 09:55:51;;;;;;;17.73;12.83;;;;;;;9.21;35.64;98082.47;5034869;28;20457;-71
2023/12/03 09:58:16;;;;;;;22.50;14.97;;;;;;;9.45;36.62;98072.78;5035767;28;20531;-72
2023/12/03 10:00:42;;;;;;;19.97;14.53;;;;;;;9.92;35.85;98068.06;5060343;28;20817;-70
2023/12/03 10:03:08;;;;;;;18.97;12.80;;;;;;;9.62;34.78;98072.22;5046693;28;20534;-71
2023/12/03 10:05:34;;;;;;;15.20;11.73;;;;;;;9.69;34.25;98077.78;5068281;28;20195;-71
2023/12/03 10:07:59;;;;;;;17.57;12.07;;;;;;;9.88;35.40;98073.69;5062659;28;20519;-71
2023/12/03 10:10:33;;;;;;;17.87;12.23;;;;;;;9.43;34.92;98074.69;5069153;28;20277;-69
2023/12/03 10:12:59;;;;;;;20.90;12.20;;;;;;;9.24;34.38;98080.56;5069003;28;20198;-72
2023/12/03 10:15:25;;;;;;;15.07;11.67;;;;;;;9.07;35.66;98069.66;5050288;28;20460;-72
2023/12/03 10:17:51;;;;;;;17.00;12.23;;;;;;;9.15;36.22;98069.84;5058167;28;20191;-73
2023/12/03 10:20:26;;;;;;;17.20;11.97;;;;;;;9.40;35.79;98062.66;5067849;28;20777;-72
2023/12/03 10:22:52;;;;;;;17.17;12.47;;;;;;;9.51;35.17;98061.81;5059355;28;20181;-71
2023/12/03 10:25:34;;;;;;;18.13;13.17;;;;;;;9.69;35.89;98069.94;5051763;28;20463;-71
2023/12/03 10:28:05;;;;;;;18.80;12.83;;;;;;;9.63;34.88;98068.66;5052495;28;20428;-72
2023/12/03 10:30:32;;;;;;;16.90;13.13;;;;;;;10.04;34.59;98068.00;5070121;28;20429;-71
2023/12/03 10:32:57;;;;;;;17.47;12.93;;;;;;;9.92;34.36;98068.06;5066344;28;20534;-71
2023/12/03 10:35:24;;;;;;;17.47;12.93;;;;;;;9.99;34.30;98066.56;5070175;28;20678;-72
2023/12/03 10:37:50;;;;;;;16.27;12.80;;;;;;;10.04;34.21;98066.19;5069059;28;20196;-71
2023/12/03 10:40:16;;;;;;;15.40;12.30;;;;;;;10.03;34.31;98061.09;5068893;28;20437;-74
2023/12/03 10:42:43;;;;;;;16.97;12.47;;;;;;;9.97;34.04;98062.44;5068164;28;20417;-71
2023/12/03 10:45:13;;;;;;;15.80;11.80;;;;;;;10.16;35.00;98056.50;5063674;28;20444;-71
2023/12/03 10:47:39;;;;;;;16.23;12.50;;;;;;;10.23;34.47;98041.91;5052539;28;20650;-71
2023/12/03 10:50:06;;;;;;;20.57;13.70;;;;;;;10.35;34.70;98044.44;5060802;28;20498;-72
2023/12/03 10:52:32;;;;;;;15.77;12.80;;;;;;;10.64;34.58;98043.78;5050321;28;20554;-70
2023/12/03 10:54:57;;;;;;;17.90;11.23;;;;;;;10.33;34.60;98038.53;5068751;28;20500;-72
2023/12/03 10:57:25;;;;;;;17.80;12.83;;;;;;;10.36;34.39;98041.72;5062895;28;20515;-71
2023/12/03 10:59:55;;;;;;;14.63;10.73;;;;;;;10.20;33.68;98036.09;5067701;28;20253;-72
2023/12/03 11:02:25;;;;;;;14.43;10.30;;;;;;;9.92;34.72;98047.09;5032579;28;20457;-73
2023/12/03 11:04:58;;;;;;;13.50;10.77;;;;;;;10.01;35.74;98040.28;5044138;28;20445;-72
2023/12/03 11:07:24;;;;;;;14.97;10.77;;;;;;;10.21;35.06;98037.75;5041152;28;20434;-71
2023/12/03 11:09:50;;;;;;;15.33;11.40;;;;;;;10.53;34.66;98039.44;5058662;28;20429;-72
2023/12/03 11:12:15;;;;;;;15.20;11.27;;;;;;;10.43;34.77;98042.03;5033040;28;20206;-72
2023/12/03 11:14:41;;;;;;;15.13;11.67;;;;;;;10.29;34.58;98040.56;5047467;28;20186;-71
2023/12/03 11:17:18;;;;;;;13.93;10.70;;;;;;;10.11;34.22;98043.78;5067584;28;20228;-71
2023/12/03 11:19:47;;;;;;;14.52;12.00;;;;;;;10.31;34.70;98036.00;5014046;28;20425;-71